Аэропорт
Сыктывкар (UUYY)

 UUYY / SCW
ЗЦ Санкт-Петербург
Сыктывкар (UUYY)
Сыктывкар (UUYY)
 61.64700, 50.84510  / 342 ft

 UUYY 181230Z 17002MPS 130V220 CAVOK 18/09 Q1022 R18/CLRD61 NOSIG RMK QFE758/1011
 TAF UUYY 180200Z 1803/1903 VRB01MPS 9999 BKN020 SCT025CB TEMPO 1803/1805 0300 FG FEW002 BECMG 1813/1815 27003MPS FM181800 20003MPS 9999 BKN015CB TEMPO 1818/1903 4000 -SHRA BR BKN013CB
показать схемы

Аэродром "Сыктывкар" (UUYY)

Рекомендованные сценарии:

FS2004 от Aniter

P3D/FSX от Aniter 

Схемы:

АИП

Средства связи ОВД:

UUYY_R_APP - Сивкар-Круг - 124.600

UUYY_TWR - Сивкар-Старт - 124.600

UUYY_ATIS - Сивкар-АТИС (русский, английский) - 126.600



2017 © VATRUS division